Time;durP1;ratioP1;P1;durP2;ratioP2;P2;SDS_P1;SDS_P2;PMS_P1;PMS_P2;Temp;Humidity;BMP_temperature;BMP_pressure;BME280_temperature;BME280_humidity;BME280_pressure;Samples;Min_cycle;Max_cycle;Signal;HPM_P1;HPM_P2
2021/07/08 00:00:39;;;;;;;19.67;17.90;;;;;;;;;;2096984;28;20874;-76
2021/07/08 00:01:41;;;;;;;19.43;17.63;;;;;;;;;;2097264;28;20217;-76
2021/07/08 00:02:42;;;;;;;19.10;17.70;;;;;;;;;;2096903;28;20452;-76
2021/07/08 00:03:43;;;;;;;18.77;17.43;;;;;;;;;;2088537;28;20474;-75
2021/07/08 00:04:44;;;;;;;18.73;17.43;;;;;;;;;;2097045;28;20452;-75
2021/07/08 00:05:45;;;;;;;18.60;17.20;;;;;;;;;;2105346;28;20691;-75
2021/07/08 00:06:46;;;;;;;21.30;18.00;;;;;;;;;;2105406;28;20813;-75
2021/07/08 00:07:47;;;;;;;19.53;17.83;;;;;;;;;;2097717;28;20229;-75
2021/07/08 00:08:48;;;;;;;19.67;17.90;;;;;;;;;;2097693;28;20483;-75
2021/07/08 00:09:49;;;;;;;19.47;17.97;;;;;;;;;;2096279;28;20669;-75
2021/07/08 00:10:52;;;;;;;19.30;17.70;;;;;;;;;;2096920;28;20877;-75
2021/07/08 00:11:53;;;;;;;19.73;18.03;;;;;;;;;;2097352;28;20226;-76
2021/07/08 00:12:55;;;;;;;20.10;18.00;;;;;;;;;;2097565;28;20447;-76
2021/07/08 00:13:55;;;;;;;18.60;17.20;;;;;;;;;;2096807;28;20725;-75
2021/07/08 00:14:57;;;;;;;19.20;17.57;;;;;;;;;;2096945;28;21599;-75
2021/07/08 00:15:59;;;;;;;19.07;17.47;;;;;;;;;;2097716;28;20680;-75
2021/07/08 00:17:01;;;;;;;20.93;17.73;;;;;;;;;;2096718;28;20468;-75
2021/07/08 00:18:03;;;;;;;19.97;18.03;;;;;;;;;;2088509;28;20457;-75
2021/07/08 00:19:05;;;;;;;19.60;17.93;;;;;;;;;;2096996;28;20456;-76
2021/07/08 00:20:07;;;;;;;19.20;17.43;;;;;;;;;;2096830;28;20464;-76
2021/07/08 00:21:08;;;;;;;19.40;17.80;;;;;;;;;;2096280;28;20461;-76
2021/07/08 00:22:09;;;;;;;19.30;17.80;;;;;;;;;;2097454;28;20529;-76
2021/07/08 00:23:10;;;;;;;19.50;17.70;;;;;;;;;;2097447;28;20977;-75
2021/07/08 00:24:11;;;;;;;19.30;17.80;;;;;;;;;;2097576;28;20234;-76
2021/07/08 00:25:13;;;;;;;19.93;17.90;;;;;;;;;;2096553;28;20461;-76
2021/07/08 00:26:15;;;;;;;19.27;17.53;;;;;;;;;;2096802;28;20226;-76
2021/07/08 00:27:16;;;;;;;19.23;17.77;;;;;;;;;;2096628;28;20453;-76
2021/07/08 00:28:17;;;;;;;19.13;17.50;;;;;;;;;;2088407;28;20454;-76
2021/07/08 00:29:18;;;;;;;18.90;17.40;;;;;;;-144.27;100.00;69759.91;2088390;28;20215;-76
2021/07/08 00:30:20;;;;;;;19.20;17.70;;;;;;;;;;2096761;28;20532;-76
2021/07/08 00:31:22;;;;;;;19.37;17.97;;;;;;;;;;2097529;28;20214;-76
2021/07/08 00:32:23;;;;;;;19.97;17.80;;;;;;;;;;2096240;28;20962;-76
2021/07/08 00:33:25;;;;;;;19.03;17.47;;;;;;;;;;2096632;28;20460;-75
2021/07/08 00:34:26;;;;;;;19.07;17.63;;;;;;;;;;2097268;28;20452;-75
2021/07/08 00:35:27;;;;;;;19.20;17.50;;;;;;;;;;2096695;28;21045;-76
2021/07/08 00:36:28;;;;;;;18.70;17.20;;;;;;;;;;2096799;28;20226;-75
2021/07/08 00:37:29;;;;;;;20.27;18.30;;;;;;;;;;2097325;28;20444;-76
2021/07/08 00:38:31;;;;;;;19.77;18.17;;;;;;;;;;2097407;28;20229;-76
2021/07/08 00:39:31;;;;;;;19.57;17.80;;;;;;;;;;2097335;28;20460;-76
2021/07/08 00:40:34;;;;;;;19.90;18.13;;;;;;;;;;2097330;28;20915;-76
2021/07/08 00:41:34;;;;;;;19.60;17.93;;;;;;;;;;2097402;28;20218;-75
2021/07/08 00:42:36;;;;;;;18.90;17.50;;;;;;;;;;2096580;28;20532;-76
2021/07/08 00:43:36;;;;;;;19.07;17.67;;;;;;;;;;2096275;28;20229;-76
2021/07/08 00:44:38;;;;;;;19.40;17.60;;;;;;;;;;2097393;28;20444;-76
2021/07/08 00:45:39;;;;;;;19.60;17.93;;;;;;;;;;2095888;28;20226;-76
2021/07/08 00:46:42;;;;;;;20.30;18.33;;;;;;;;;;2087516;28;20532;-75
2021/07/08 00:47:43;;;;;;;19.43;17.87;;;;;;;;;;2088342;28;20223;-76
2021/07/08 00:48:44;;;;;;;19.33;17.83;;;;;;;;;;2096580;28;20448;-75
2021/07/08 00:49:45;;;;;;;19.00;17.60;;;;;;;;;;2096395;28;20245;-75
2021/07/08 00:50:47;;;;;;;19.90;17.90;;;;;;;;;;2096570;28;20475;-75
2021/07/08 00:51:47;;;;;;;19.03;17.63;;;;;;;-144.27;100.00;69759.91;2097388;28;20684;-75
2021/07/08 00:52:49;;;;;;;19.93;18.03;;;;;;;;;;2097256;28;20448;-76
2021/07/08 00:53:49;;;;;;;19.87;18.00;;;;;;;;;;2097350;28;20229;-75
2021/07/08 00:54:51;;;;;;;19.97;18.23;;;;;;;;;;2097427;28;20472;-76
2021/07/08 00:55:53;;;;;;;20.83;18.70;;;;;;;;;;2096892;28;20222;-76
2021/07/08 00:56:55;;;;;;;20.90;18.80;;;;;;;;;;2097168;28;20473;-76
2021/07/08 00:57:55;;;;;;;20.07;18.37;;;;;;;;;;2097137;28;20463;-76
2021/07/08 00:59:03;;;;;;;19.33;17.83;;;;;;;;;;2097251;28;22761;-76
2021/07/08 01:00:05;;;;;;;19.73;18.13;;;;;;;;;;2097316;28;20233;-76
2021/07/08 01:01:06;;;;;;;19.50;17.70;;;;;;;;;;2096483;28;20460;-75
2021/07/08 01:02:08;;;;;;;20.00;18.43;;;;;;;;;;2096194;28;20469;-76
2021/07/08 01:03:10;;;;;;;19.40;18.00;;;;;;;;;;2097319;28;20492;-76
2021/07/08 01:04:11;;;;;;;19.87;18.17;;;;;;;;;;2097024;28;20472;-76
2021/07/08 01:05:16;;;;;;;19.87;18.23;;;;;;;-144.27;100.00;69759.91;2096330;28;20484;-76
2021/07/08 01:06:18;;;;;;;20.00;18.40;;;;;;;;;;2088551;28;20570;-75
2021/07/08 01:07:20;;;;;;;19.27;17.87;;;;;;;;;;2087673;28;20521;-76
2021/07/08 01:08:22;;;;;;;19.77;18.17;;;;;;;;;;2096490;28;20460;-76
2021/07/08 01:09:24;;;;;;;19.97;18.47;;;;;;;;;;2096794;28;20535;-76
2021/07/08 01:10:25;;;;;;;19.87;18.27;;;;;;;;;;2097171;28;20452;-76
2021/07/08 01:11:27;;;;;;;20.17;18.63;;;;;;;;;;2097044;28;20453;-75
2021/07/08 01:12:28;;;;;;;20.30;18.70;;;;;;;;;;2097199;28;20229;-76
2021/07/08 01:13:29;;;;;;;20.27;18.60;;;;;;;-144.27;100.00;70359.91;2096007;28;20432;-75
2021/07/08 01:14:30;;;;;;;19.87;18.47;;;;;;;;;;2088180;28;20222;-76
2021/07/08 01:15:32;;;;;;;20.47;18.67;;;;;;;;;;2088176;28;20481;-76
2021/07/08 01:16:32;;;;;;;19.70;18.00;;;;;;;;;;2096492;28;20222;-75
2021/07/08 01:17:35;;;;;;;20.63;18.93;;;;;;;;;;2097061;28;21077;-76
2021/07/08 01:18:36;;;;;;;20.17;18.40;;;;;;;;;;2097099;28;20217;-75
2021/07/08 01:19:39;;;;;;;20.33;18.60;;;;;;;;;;2096694;28;20488;-76
2021/07/08 01:20:39;;;;;;;19.63;18.13;;;;;;;;;;2096199;28;20310;-75
2021/07/08 01:21:42;;;;;;;19.80;18.30;;;;;;;;;;2087969;28;20458;-76
2021/07/08 01:22:43;;;;;;;20.40;18.80;;;;;;;;;;2088079;28;20226;-75
2021/07/08 01:23:44;;;;;;;19.63;18.17;;;;;;;;;;2096353;28;20440;-75
2021/07/08 01:24:45;;;;;;;19.80;18.40;;;;;;;;;;2097127;28;20218;-75
2021/07/08 01:25:46;;;;;;;21.10;19.07;;;;;;;;;;2095964;28;20496;-75
2021/07/08 01:26:47;;;;;;;20.13;18.47;;;;;;;;;;2087983;28;20214;-76
2021/07/08 01:27:49;;;;;;;20.63;18.70;;;;;;;;;;2096456;28;20440;-75
2021/07/08 01:28:50;;;;;;;21.53;19.37;;;;;;;-144.27;100.00;69759.91;2096246;28;20262;-76
2021/07/08 01:29:52;;;;;;;21.20;19.03;;;;;;;;;;2088008;28;20469;-76
2021/07/08 01:30:53;;;;;;;19.80;18.20;;;;;;;;;;2095543;28;20464;-76
2021/07/08 01:31:54;;;;;;;21.47;19.50;;;;;;;;;;2096375;28;20520;-76
2021/07/08 01:32:55;;;;;;;21.10;19.20;;;;;;;;;;2097005;28;20668;-75
2021/07/08 01:33:57;;;;;;;20.47;18.90;;;;;;;;;;2096926;28;20452;-75
2021/07/08 01:34:57;;;;;;;20.93;19.03;;;;;;;;;;2096170;28;20444;-76
2021/07/08 01:35:59;;;;;;;20.83;18.83;;;;;;;;;;2096334;28;20974;-75
2021/07/08 01:37:01;;;;;;;20.93;18.90;;;;;;;;;;2097029;28;20267;-75
2021/07/08 01:38:03;;;;;;;20.27;18.53;;;;;;;;;;2097179;28;20505;-75
2021/07/08 01:39:03;;;;;;;20.23;18.33;;;;;;;;;;2097062;28;20938;-75
2021/07/08 01:40:05;;;;;;;20.77;19.07;;;;;;;;;;2097185;28;20827;-75
2021/07/08 01:41:06;;;;;;;19.80;18.10;;;;;;;;;;2096991;28;20225;-76
2021/07/08 01:42:07;;;;;;;20.40;18.67;;;;;;;;;;2096483;28;20445;-76
2021/07/08 01:43:08;;;;;;;20.63;18.77;;;;;;;;;;2095770;28;20637;-76
2021/07/08 01:44:11;;;;;;;20.83;18.73;;;;;;;;;;2087417;28;20493;-76
2021/07/08 01:45:12;;;;;;;20.60;18.80;;;;;;;;;;2096235;28;21958;-76
2021/07/08 01:46:17;;;;;;;20.27;18.50;;;;;;;22.41;0.00;69759.91;2104659;28;20442;-75
2021/07/08 01:47:17;;;;;;;20.60;18.67;;;;;;;;;;2096895;28;20436;-75
2021/07/08 01:48:20;;;;;;;20.87;19.07;;;;;;;;;;2096187;28;20472;-76
2021/07/08 01:49:21;;;;;;;20.80;19.10;;;;;;;;;;2096314;28;20259;-76
2021/07/08 01:50:22;;;;;;;20.23;18.53;;;;;;;;;;2096327;28;20448;-75
2021/07/08 01:51:26;;;;;;;20.10;18.37;;;;;;;;;;2096299;28;20324;-76
2021/07/08 01:52:29;;;;;;;19.90;17.97;;;;;;;;;;2096871;28;20459;-76
2021/07/08 01:53:30;;;;;;;19.77;18.13;;;;;;;;;;2095997;28;20479;-76
2021/07/08 01:54:32;;;;;;;19.93;17.97;;;;;;;-144.27;0.00;69759.91;2096136;28;20519;-76
2021/07/08 01:55:32;;;;;;;20.07;18.30;;;;;;;;;;2097015;28;20706;-75
2021/07/08 01:56:34;;;;;;;20.37;18.53;;;;;;;;;;2096813;28;20822;-76
2021/07/08 01:57:37;;;;;;;19.70;18.10;;;;;;;;;;2096679;28;20222;-76
2021/07/08 01:58:39;;;;;;;19.73;18.17;;;;;;;;;;2095627;28;20471;-76
2021/07/08 01:59:39;;;;;;;20.33;18.30;;;;;;;;;;2087804;28;20448;-76
2021/07/08 02:00:41;;;;;;;19.57;18.17;;;;;;;;;;2096286;28;20978;-76
2021/07/08 02:01:42;;;;;;;19.20;17.60;;;;;;;;;;2096819;28;20256;-76
2021/07/08 02:02:43;;;;;;;19.93;17.77;;;;;;;;;;2096815;28;20923;-76
2021/07/08 02:03:44;;;;;;;19.30;17.77;;;;;;;;;;2097050;28;20225;-76
2021/07/08 02:04:46;;;;;;;19.17;17.57;;;;;;;-144.27;85.72;69759.91;2096105;28;20531;-76
2021/07/08 02:05:46;;;;;;;19.07;17.67;;;;;;;;;;2088018;28;20230;-76
2021/07/08 02:06:48;;;;;;;20.57;19.00;;;;;;;-144.27;100.00;69759.91;2087861;28;20457;-76
2021/07/08 02:07:50;;;;;;;20.33;18.20;;;;;;;;;;2087390;28;20226;-76
2021/07/08 02:08:52;;;;;;;20.60;18.80;;;;;;;;;;2096249;28;21002;-76
2021/07/08 02:09:52;;;;;;;19.73;18.07;;;;;;;;;;2095632;28;20475;-76
2021/07/08 02:10:54;;;;;;;19.23;17.83;;;;;;;;;;2096014;28;20990;-76
2021/07/08 02:11:54;;;;;;;20.67;18.73;;;;;;;;;;2104425;28;20690;-76
2021/07/08 02:12:56;;;;;;;20.27;18.47;;;;;;;;;;2104408;28;20855;-76
2021/07/08 02:13:56;;;;;;;20.90;18.80;;;;;;;;;;2096883;28;20241;-76
2021/07/08 02:14:58;;;;;;;20.57;18.73;;;;;;;;;;2096812;28;20460;-75
2021/07/08 02:15:58;;;;;;;20.70;18.77;;;;;;;;;;2096760;28;20573;-75
2021/07/08 02:17:00;;;;;;;20.50;18.63;;;;;;;;;;2096871;28;20461;-76
2021/07/08 02:18:00;;;;;;;20.87;18.80;;;;;;;;;;2096714;28;20233;-76
2021/07/08 02:19:02;;;;;;;20.83;19.07;;;;;;;;;;2096752;28;21070;-76
2021/07/08 02:20:04;;;;;;;20.90;18.90;;;;;;;;;;2096037;28;20320;-76
2021/07/08 02:21:05;;;;;;;19.70;18.23;;;;;;;;;;2096192;28;20500;-75
2021/07/08 02:22:06;;;;;;;21.23;19.03;;;;;;;-144.27;100.00;69759.91;2096826;28;20456;-76
2021/07/08 02:23:09;;;;;;;21.13;19.10;;;;;;;;;;2096338;28;20532;-77
2021/07/08 02:24:09;;;;;;;21.20;19.37;;;;;;;;;;2096076;28;20798;-76
2021/07/08 02:25:13;;;;;;;21.73;19.90;;;;;;;;;;2087747;28;20827;-76
2021/07/08 02:26:13;;;;;;;22.10;20.03;;;;;;;;;;2096387;28;20233;-76
2021/07/08 02:27:15;;;;;;;22.77;20.70;;;;;;;-144.27;100.00;69759.91;2104580;28;20493;-76
2021/07/08 02:28:15;;;;;;;22.57;20.47;;;;;;;;;;2096842;28;20214;-76
2021/07/08 02:29:17;;;;;;;21.57;19.57;;;;;;;;;;2096071;28;20453;-75
2021/07/08 02:30:19;;;;;;;22.27;20.17;;;;;;;;;;2096181;28;20696;-76
2021/07/08 02:31:20;;;;;;;22.10;20.10;;;;;;;;;;2096025;28;20436;-76
2021/07/08 02:32:21;;;;;;;23.20;20.80;;;;;;;;;;2087857;28;20450;-76
2021/07/08 02:33:22;;;;;;;22.63;20.43;;;;;;;;;;2087487;28;20453;-77
2021/07/08 02:34:23;;;;;;;22.90;20.70;;;;;;;-144.27;100.00;70059.25;2087754;28;20227;-76
2021/07/08 02:35:27;;;;;;;23.47;21.17;;;;;;;-144.27;100.00;69759.91;2087780;28;20437;-76
2021/07/08 02:36:28;;;;;;;23.67;21.10;;;;;;;;;;2096111;28;20671;-76
2021/07/08 02:37:28;;;;;;;23.27;20.97;;;;;;;;;;2096688;28;20452;-76
2021/07/08 02:38:31;;;;;;;25.83;20.93;;;;;;;;;;2096018;28;20527;-76
2021/07/08 02:39:32;;;;;;;23.13;21.03;;;;;;;;;;2095982;28;20316;-75
2021/07/08 02:40:34;;;;;;;23.10;21.00;;;;;;;;;;2095902;28;20444;-75
2021/07/08 02:41:35;;;;;;;22.70;20.50;;;;;;;-144.27;100.00;69759.91;2096118;28;20225;-76
2021/07/08 02:42:37;;;;;;;23.13;20.80;;;;;;;;;;2095959;28;20440;-75
2021/07/08 02:43:37;;;;;;;22.07;19.90;;;;;;;;;;2095835;28;20696;-76
2021/07/08 02:44:39;;;;;;;25.03;20.77;;;;;;;;;;2095819;28;20888;-76
2021/07/08 02:45:40;;;;;;;23.17;20.87;;;;;;;;;;2095833;28;20230;-76
2021/07/08 02:46:42;;;;;;;23.23;21.23;;;;;;;;;;2096605;28;20471;-75
2021/07/08 02:47:43;;;;;;;22.70;20.37;;;;;;;;;;2096650;28;20510;-76
2021/07/08 02:48:44;;;;;;;23.07;20.90;;;;;;;;;;2096735;28;20448;-76
2021/07/08 02:49:45;;;;;;;26.10;20.90;;;;;;;;;;2096060;28;20222;-75
2021/07/08 02:50:47;;;;;;;24.23;21.83;;;;;;;;;;2096156;28;20511;-76
2021/07/08 02:51:48;;;;;;;22.80;20.63;;;;;;;;;;2095904;28;20303;-75
2021/07/08 02:52:50;;;;;;;22.93;20.60;;;;;;;;;;2096028;28;20448;-76
2021/07/08 02:53:53;;;;;;;22.33;20.23;;;;;;;;;;2096642;28;20219;-76
2021/07/08 02:54:53;;;;;;;23.37;20.57;;;;;;;-144.27;100.00;69759.91;2095458;28;21035;-76
2021/07/08 02:55:55;;;;;;;21.97;20.00;;;;;;;;;;2087718;28;20873;-76
2021/07/08 02:56:55;;;;;;;22.17;20.17;;;;;;;;;;2095968;28;20229;-76
2021/07/08 02:57:58;;;;;;;22.53;20.53;;;;;;;;;;2104324;28;20542;-76
2021/07/08 02:58:59;;;;;;;23.23;21.13;;;;;;;;;;2096794;28;20222;-76
2021/07/08 03:00:00;;;;;;;22.87;20.67;;;;;;;;;;2096658;28;20436;-76
2021/07/08 03:01:01;;;;;;;22.67;20.53;;;;;;;;;;2096772;28;20226;-76
2021/07/08 03:02:02;;;;;;;22.20;20.30;;;;;;;;;;2095904;28;20495;-75
2021/07/08 03:03:03;;;;;;;22.40;20.30;;;;;;;22.43;100.00;69759.91;2095999;28;20214;-76
2021/07/08 03:04:06;;;;;;;23.30;20.93;;;;;;;;;;2096660;28;20449;-76
2021/07/08 03:05:07;;;;;;;22.03;20.13;;;;;;;;;;2095213;28;20973;-75
2021/07/08 03:06:08;;;;;;;21.93;20.03;;;;;;;;;;2095547;28;20819;-77
2021/07/08 03:07:09;;;;;;;22.40;20.50;;;;;;;;;;2096624;28;20464;-75
2021/07/08 03:08:10;;;;;;;22.47;20.50;;;;;;;;;;2096684;28;20939;-76
2021/07/08 03:09:12;;;;;;;21.60;19.80;;;;;;;;;;2096815;28;20316;-76
2021/07/08 03:10:14;;;;;;;22.20;19.93;;;;;;;;;;2097101;28;20444;-76
2021/07/08 03:11:15;;;;;;;21.73;19.83;;;;;;;;;;2097250;28;20460;-76
2021/07/08 03:12:16;;;;;;;21.10;19.33;;;;;;;;;;2089168;28;20482;-75
2021/07/08 03:13:17;;;;;;;22.10;20.10;;;;;;;23.70;100.00;69759.91;2089127;28;20219;-76
2021/07/08 03:14:19;;;;;;;21.03;19.40;;;;;;;;;;2097464;28;20452;-75
2021/07/08 03:15:19;;;;;;;21.17;19.33;;;;;;;;;;2097358;28;20214;-75
2021/07/08 03:16:21;;;;;;;21.20;19.33;;;;;;;;;;2097417;28;21009;-76
2021/07/08 03:17:21;;;;;;;21.77;19.57;;;;;;;;;;2097693;28;20261;-77
2021/07/08 03:18:23;;;;;;;21.53;19.33;;;;;;;;;;2097912;28;20488;-76
2021/07/08 03:19:23;;;;;;;23.73;19.70;;;;;;;;;;2098081;28;20226;-76
2021/07/08 03:20:26;;;;;;;21.67;19.63;;;;;;;;;;2097889;28;20492;-76
2021/07/08 03:21:26;;;;;;;21.53;19.57;;;;;;;;;;2098051;28;20242;-76
2021/07/08 03:22:28;;;;;;;22.00;19.93;;;;;;;;;;2097354;28;20440;-77
2021/07/08 03:23:29;;;;;;;24.10;19.97;;;;;;;;;;2088883;28;20225;-76
2021/07/08 03:24:31;;;;;;;20.67;18.87;;;;;;;;;;2097374;28;20456;-76
2021/07/08 03:25:33;;;;;;;21.30;19.40;;;;;;;;;;2097254;28;20456;-77
2021/07/08 03:26:34;;;;;;;21.47;19.63;;;;;;;;;;2097287;28;20811;-76
2021/07/08 03:27:36;;;;;;;22.10;19.93;;;;;;;;;;2097381;28;20458;-76
2021/07/08 03:28:38;;;;;;;20.87;19.10;;;;;;;22.56;100.00;69759.91;2097569;28;20221;-77
2021/07/08 03:29:38;;;;;;;21.20;18.97;;;;;;;;;;2097101;28;20459;-76
2021/07/08 03:30:40;;;;;;;20.80;19.00;;;;;;;;;;2097273;28;20487;-76
2021/07/08 03:31:40;;;;;;;20.27;18.47;;;;;;;;;;2096815;28;20582;-76
2021/07/08 03:32:43;;;;;;;20.10;18.60;;;;;;;;;;2097377;28;20492;-76
2021/07/08 03:33:43;;;;;;;20.93;18.93;;;;;;;;;;2098008;28;20672;-76
2021/07/08 03:34:45;;;;;;;21.33;19.53;;;;;;;;;;2097021;28;20838;-76
2021/07/08 03:35:45;;;;;;;21.23;19.10;;;;;;;;;;2097025;28;20222;-75
2021/07/08 03:36:47;;;;;;;20.80;19.00;;;;;;;-144.27;100.00;69759.91;2097165;28;21483;-76
2021/07/08 03:37:47;;;;;;;20.30;18.47;;;;;;;;;;2097150;28;20276;-75
2021/07/08 03:38:49;;;;;;;21.80;19.77;;;;;;;;;;2096688;28;20433;-76
2021/07/08 03:39:51;;;;;;;20.37;18.60;;;;;;;;;;2097349;28;20214;-76
2021/07/08 03:40:52;;;;;;;21.53;19.17;;;;;;;;;;2097519;28;20502;-76
2021/07/08 03:41:53;;;;;;;21.13;19.20;;;;;;;;;;2097747;28;20456;-76
2021/07/08 03:42:55;;;;;;;20.53;18.80;;;;;;;;;;2096952;28;20487;-76
2021/07/08 03:43:55;;;;;;;22.20;19.90;;;;;;;;;;2097208;28;20302;-76
2021/07/08 03:44:57;;;;;;;21.37;19.67;;;;;;;;;;2096584;28;20449;-76
2021/07/08 03:45:58;;;;;;;22.13;20.03;;;;;;;;;;2097116;28;20704;-76
2021/07/08 03:46:59;;;;;;;22.57;20.20;;;;;;;;;;2097881;28;20456;-75
2021/07/08 03:48:00;;;;;;;20.90;19.20;;;;;;;;;;2096995;28;20440;-76
2021/07/08 03:49:01;;;;;;;22.50;20.43;;;;;;;;;;2097247;28;20226;-76
2021/07/08 03:50:03;;;;;;;21.63;19.63;;;;;;;;;;2096883;28;20453;-75
2021/07/08 03:51:04;;;;;;;22.03;20.27;;;;;;;;;;2097252;28;20225;-76
2021/07/08 03:52:06;;;;;;;20.93;18.87;;;;;;;;;;2097807;28;20477;-76
2021/07/08 03:53:06;;;;;;;21.27;19.40;;;;;;;;;;2097439;28;20226;-76
2021/07/08 03:54:08;;;;;;;20.87;19.07;;;;;;;;;;2097614;28;20473;-76
2021/07/08 03:55:12;;;;;;;21.73;19.57;;;;;;;;;;2097668;28;20226;-76
2021/07/08 03:56:14;;;;;;;21.07;19.37;;;;;;;;;;2096961;28;20507;-76
2021/07/08 03:57:14;;;;;;;30.50;20.10;;;;;;;22.72;100.00;69759.91;2096960;28;20453;-76
2021/07/08 03:58:16;;;;;;;21.37;19.47;;;;;;;;;;2097746;28;20488;-76
2021/07/08 03:59:16;;;;;;;21.27;19.27;;;;;;;;;;2097782;28;20694;-76
2021/07/08 04:00:18;;;;;;;21.07;19.17;;;;;;;;;;2096348;28;20491;-76
2021/07/08 04:01:19;;;;;;;21.33;19.43;;;;;;;22.72;100.00;69759.91;2088624;28;20579;-76
2021/07/08 04:02:20;;;;;;;20.53;18.83;;;;;;;;;;2097086;28;20437;-75
2021/07/08 04:03:21;;;;;;;22.43;19.90;;;;;;;;;;2097815;28;20249;-76
2021/07/08 04:04:22;;;;;;;22.23;20.07;;;;;;;;;;2096377;28;20467;-77
2021/07/08 04:05:23;;;;;;;24.90;19.77;;;;;;;;;;2088589;28;20230;-76
2021/07/08 04:06:24;;;;;;;22.23;19.97;;;;;;;;;;2096960;28;20488;-76
2021/07/08 04:07:25;;;;;;;21.30;19.47;;;;;;;;;;2097793;28;20230;-76
2021/07/08 04:08:26;;;;;;;21.60;19.60;;;;;;;;;;2097696;28;20498;-76
2021/07/08 04:09:27;;;;;;;22.87;20.40;;;;;;;;;;2096342;28;20237;-76
2021/07/08 04:10:30;;;;;;;21.70;19.70;;;;;;;;;;2097051;28;20444;-76
2021/07/08 04:11:31;;;;;;;21.07;19.27;;;;;;;;;;2097574;28;20226;-76
2021/07/08 04:12:32;;;;;;;21.27;19.30;;;;;;;;;;2097732;28;21002;-76
2021/07/08 04:13:33;;;;;;;20.83;19.30;;;;;;;;;;2096130;28;20229;-75
2021/07/08 04:14:34;;;;;;;21.47;19.67;;;;;;;;;;2096906;28;20536;-76
2021/07/08 04:15:35;;;;;;;21.53;19.70;;;;;;;;;;2097671;28;20222;-76
2021/07/08 04:16:36;;;;;;;22.00;20.10;;;;;;;;;;2097669;28;20440;-75
2021/07/08 04:17:37;;;;;;;21.33;19.53;;;;;;;;;;2097284;28;20230;-76
2021/07/08 04:18:38;;;;;;;21.60;19.60;;;;;;;;;;2096202;28;20525;-77
2021/07/08 04:19:39;;;;;;;21.67;19.73;;;;;;;;;;2096893;28;20222;-75
2021/07/08 04:20:40;;;;;;;21.77;19.73;;;;;;;;;;2097465;28;20532;-76
2021/07/08 04:21:41;;;;;;;21.07;19.20;;;;;;;;;;2096559;28;20590;-75
2021/07/08 04:22:43;;;;;;;21.80;19.90;;;;;;;;;;2088448;28;20481;-76
2021/07/08 04:23:43;;;;;;;21.90;19.80;;;;;;;;;;2096927;28;20218;-75
2021/07/08 04:24:45;;;;;;;22.03;19.97;;;;;;;;;;2097671;28;20447;-76
2021/07/08 04:25:47;;;;;;;21.97;19.93;;;;;;;;;;2097444;28;20229;-76
2021/07/08 04:26:48;;;;;;;22.13;20.17;;;;;;;;;;2096584;28;20966;-75
2021/07/08 04:27:50;;;;;;;26.80;20.50;;;;;;;;;;2096918;28;20763;-75
2021/07/08 04:28:50;;;;;;;21.73;19.83;;;;;;;;;;2096751;28;20310;-76
2021/07/08 04:29:52;;;;;;;22.07;19.73;;;;;;;;;;2096914;28;20461;-75
2021/07/08 04:30:52;;;;;;;21.67;19.73;;;;;;;;;;2096293;28;20308;-76
2021/07/08 04:31:54;;;;;;;21.63;19.80;;;;;;;;;;2096612;28;20456;-76
2021/07/08 04:32:55;;;;;;;21.47;19.50;;;;;;;;;;2096737;28;20222;-76
2021/07/08 04:33:57;;;;;;;21.23;19.57;;;;;;;;;;2096826;28;20472;-76
2021/07/08 04:34:58;;;;;;;21.20;19.40;;;;;;;;;;2097564;28;20988;-76
2021/07/08 04:36:00;;;;;;;20.10;18.20;;;;;;;;;;2097358;28;20437;-76
2021/07/08 04:37:02;;;;;;;20.57;18.80;;;;;;;;;;2097539;28;20459;-76
2021/07/08 04:38:05;;;;;;;19.63;17.97;;;;;;;;;;2096576;28;20472;-76
2021/07/08 04:39:06;;;;;;;20.00;18.20;;;;;;;;;;2096804;28;20471;-75
2021/07/08 04:40:08;;;;;;;20.43;18.73;;;;;;;;;;2097104;28;20452;-76
2021/07/08 04:41:10;;;;;;;21.20;19.13;;;;;;;;;;2097517;28;20716;-76
2021/07/08 04:42:12;;;;;;;22.70;20.47;;;;;;;;;;2097322;28;20535;-76
2021/07/08 04:43:12;;;;;;;21.37;19.67;;;;;;;;;;2097413;28;20961;-76
2021/07/08 04:44:14;;;;;;;21.67;19.87;;;;;;;;;;2097395;28;20856;-76
2021/07/08 04:45:15;;;;;;;21.13;19.47;;;;;;;;;;2097111;28;20222;-76
2021/07/08 04:46:16;;;;;;;21.67;19.90;;;;;;;;;;2097361;28;20447;-76
2021/07/08 04:47:17;;;;;;;22.17;20.10;;;;;;;;;;2097331;28;20221;-75
2021/07/08 04:48:18;;;;;;;22.30;20.20;;;;;;;;;;2097236;28;20472;-75
2021/07/08 04:49:19;;;;;;;22.23;20.33;;;;;;;;;;2097375;28;20222;-75
2021/07/08 04:50:23;;;;;;;22.73;20.70;;;;;;;-144.27;100.00;69759.91;2097401;28;20460;-75
2021/07/08 04:51:23;;;;;;;22.70;20.80;;;;;;;;;;2096915;28;20309;-75
2021/07/08 04:52:25;;;;;;;24.37;22.30;;;;;;;;;;2096117;28;20506;-76
2021/07/08 04:53:25;;;;;;;24.87;22.30;;;;;;;;;;2088231;28;20227;-75
2021/07/08 04:54:27;;;;;;;23.90;21.70;;;;;;;;;;2096559;28;21019;-75
2021/07/08 04:55:27;;;;;;;24.37;22.20;;;;;;;;;;2096477;28;20583;-76
2021/07/08 04:56:30;;;;;;;22.80;20.90;;;;;;;64.11;100.00;114442.41;2096504;28;20448;-75
2021/07/08 04:57:31;;;;;;;24.13;21.63;;;;;;;-144.27;100.00;69759.91;2096419;28;20224;-75
2021/07/08 04:58:33;;;;;;;23.03;21.03;;;;;;;;;;2096445;28;20495;-75
2021/07/08 04:59:33;;;;;;;24.50;21.80;;;;;;;;;;2096670;28;20255;-76
2021/07/08 05:00:35;;;;;;;24.40;22.07;;;;;;;;;;2096165;28;20514;-75
2021/07/08 05:01:35;;;;;;;25.07;22.73;;;;;;;;;;2096543;28;20695;-75
2021/07/08 05:02:37;;;;;;;24.20;21.83;;;;;;;;;;2097201;28;20848;-75
2021/07/08 05:03:37;;;;;;;23.60;21.47;;;;;;;;;;2096882;28;20229;-75
2021/07/08 05:04:39;;;;;;;24.77;22.57;;;;;;;;;;2097188;28;20464;-75
2021/07/08 05:05:39;;;;;;;23.20;21.40;;;;;;;;;;2097243;28;20672;-75
2021/07/08 05:06:41;;;;;;;23.57;21.47;;;;;;;;;;2097207;28;20849;-76
2021/07/08 05:07:42;;;;;;;23.00;20.87;;;;;;;;;;2095606;28;20231;-75
2021/07/08 05:08:43;;;;;;;23.00;20.83;;;;;;;;;;2096294;28;20468;-75
2021/07/08 05:09:44;;;;;;;22.37;20.30;;;;;;;;;;2097163;28;20766;-75
2021/07/08 05:10:45;;;;;;;22.67;20.63;;;;;;;;;;2095697;28;20876;-75
2021/07/08 05:11:47;;;;;;;22.57;20.60;;;;;;;-144.27;100.00;69759.91;2096574;28;20226;-75
2021/07/08 05:12:49;;;;;;;24.47;21.30;;;;;;;;;;2097183;28;20437;-75
2021/07/08 05:13:49;;;;;;;22.50;20.33;;;;;;;-144.27;100.00;69759.91;2097180;28;20456;-75
2021/07/08 05:14:51;;;;;;;23.07;20.77;;;;;;;;;;2096437;28;20452;-75
2021/07/08 05:15:52;;;;;;;23.23;21.00;;;;;;;;;;2087740;28;20572;-76
2021/07/08 05:16:53;;;;;;;23.20;20.77;;;;;;;;;;2087982;28;20543;-76
2021/07/08 05:17:54;;;;;;;21.93;20.03;;;;;;;;;;2096279;28;20296;-76
2021/07/08 05:18:55;;;;;;;21.93;19.97;;;;;;;;;;2096963;28;20542;-76
2021/07/08 05:19:56;;;;;;;21.97;19.83;;;;;;;;;;2097076;28;20704;-75
2021/07/08 05:20:57;;;;;;;21.73;19.73;;;;;;;;;;2097102;28;20845;-76
2021/07/08 05:21:59;;;;;;;22.27;20.03;;;;;;;;;;2097002;28;20225;-75
2021/07/08 05:23:02;;;;;;;21.57;19.60;;;;;;;;;;2097129;28;20763;-74
2021/07/08 05:24:04;;;;;;;21.90;20.00;;;;;;;;;;2096167;28;20448;-75
2021/07/08 05:25:08;;;;;;;23.10;20.97;;;;;;;-144.27;100.00;69759.91;2096286;28;20452;-75
2021/07/08 05:26:08;;;;;;;23.43;21.23;;;;;;;;;;2096565;28;20459;-74
2021/07/08 05:27:15;;;;;;;24.17;21.00;;;;;;;;;;2097097;28;20483;-75
2021/07/08 05:28:16;;;;;;;23.33;21.20;;;;;;;;;;2096340;28;20224;-75
2021/07/08 05:29:18;;;;;;;22.90;20.60;;;;;;;;;;2088111;28;20449;-75
2021/07/08 05:30:18;;;;;;;22.50;20.23;;;;;;;;;;2088060;28;20623;-76
2021/07/08 05:31:20;;;;;;;22.90;20.83;;;;;;;;;;2096377;28;20445;-75
2021/07/08 05:32:20;;;;;;;23.03;20.67;;;;;;;;;;2096131;28;20229;-75
2021/07/08 05:33:22;;;;;;;25.30;22.83;;;;;;;;;;2095881;28;20453;-75
2021/07/08 05:34:23;;;;;;;23.77;21.77;;;;;;;;;;2095965;28;20222;-75
2021/07/08 05:35:24;;;;;;;24.00;21.90;;;;;;;;;;2088047;28;20541;-76
2021/07/08 05:36:24;;;;;;;23.87;21.53;;;;;;;;;;2096140;28;20642;-75
2021/07/08 05:37:26;;;;;;;24.03;21.83;;;;;;;;;;2087893;28;20460;-75
2021/07/08 05:38:26;;;;;;;24.30;21.93;;;;;;;;;;2087811;28;20233;-75
2021/07/08 05:39:28;;;;;;;24.60;22.40;;;;;;;;;;2096335;28;20941;-76
2021/07/08 05:40:28;;;;;;;25.63;23.03;;;;;;;;;;2097031;28;20283;-76
2021/07/08 05:41:30;;;;;;;28.17;22.73;;;;;;;;;;2095967;28;20461;-75
2021/07/08 05:42:32;;;;;;;25.40;23.00;;;;;;;;;;2087692;28;20264;-75
2021/07/08 05:43:33;;;;;;;24.83;22.33;;;;;;;;;;2096309;28;20456;-75
2021/07/08 05:44:34;;;;;;;23.70;21.60;;;;;;;;;;2097050;28;20444;-75
2021/07/08 05:45:35;;;;;;;24.47;22.27;;;;;;;;;;2096880;28;20946;-75
2021/07/08 05:46:36;;;;;;;24.57;22.20;;;;;;;-144.27;100.00;69759.91;2097161;28;20682;-75
2021/07/08 05:47:38;;;;;;;24.30;22.00;;;;;;;;;;2096628;28;20440;-76
2021/07/08 05:48:38;;;;;;;24.73;22.10;;;;;;;;;;2096910;28;20270;-75